Time;durP1;ratioP1;P1;durP2;ratioP2;P2;SDS_P1;SDS_P2;PMS_P1;PMS_P2;Temp;Humidity;BMP_temperature;BMP_pressure;BME280_temperature;BME280_humidity;BME280_pressure;Samples;Min_cycle;Max_cycle;Signal;HPM_P1;HPM_P2
2022/06/17 00:00:40;;;;;;;8.32;3.22;;;21.00;99.90;;;;;;4165693;28;20212;-90
2022/06/17 00:02:41;;;;;;;4.88;3.10;;;20.70;99.90;;;;;;4181548;28;20179;-91
2022/06/17 00:04:41;;;;;;;8.35;3.60;;;20.60;99.90;;;;;;4181866;28;20171;-90
2022/06/17 00:07:04;;;;;;;5.18;3.22;;;20.80;99.90;;;;;;4181986;28;20174;-90
2022/06/17 00:09:06;;;;;;;4.68;2.63;;;20.90;99.90;;;;;;4165340;28;20226;-90
2022/06/17 00:11:15;;;;;;;9.70;3.50;;;20.90;99.90;;;;;;4165431;28;20188;-90
2022/06/17 00:13:18;;;;;;;7.22;3.20;;;20.70;99.90;;;;;;4165102;28;20179;-89
2022/06/17 00:15:19;;;;;;;8.55;3.00;;;20.70;99.90;;;;;;4182506;28;20214;-91
2022/06/17 00:17:21;;;;;;;8.05;3.28;;;20.90;99.90;;;;;;4165212;28;20176;-90
2022/06/17 00:19:21;;;;;;;8.98;3.10;;;21.00;99.90;;;;;;4181703;28;20279;-90
2022/06/17 00:21:31;;;;;;;7.32;2.78;;;20.80;99.90;;;;;;4181650;28;20184;-90
2022/06/17 00:23:32;;;;;;;5.43;2.75;;;20.90;99.90;;;;;;4165013;28;20708;-91
2022/06/17 00:25:36;;;;;;;4.25;2.70;;;20.90;99.90;;;;;;4181395;28;20195;-90
2022/06/17 00:27:36;;;;;;;5.72;2.65;;;20.90;99.90;;;;;;4181544;28;20273;-90
2022/06/17 00:29:37;;;;;;;3.60;2.28;;;20.80;99.90;;;;;;4164726;28;20208;-90
2022/06/17 00:31:38;;;;;;;5.85;2.58;;;20.80;99.90;;;;;;4182514;28;20322;-89
2022/06/17 00:33:39;;;;;;;4.93;2.20;;;20.80;99.90;;;;;;4181635;28;20253;-90
2022/06/17 00:35:46;;;;;;;5.00;2.47;;;20.80;99.90;;;;;;4165128;28;20607;-90
2022/06/17 00:37:47;;;;;;;4.30;2.30;;;20.80;99.90;;;;;;4181490;28;20197;-90
2022/06/17 00:39:48;;;;;;;7.20;2.17;;;20.80;99.90;;;;;;4181548;28;20180;-89
2022/06/17 00:41:52;;;;;;;9.35;2.63;;;20.80;99.90;;;;;;4165025;28;20271;-90
2022/06/17 00:43:53;;;;;;;6.85;3.05;;;20.70;99.90;;;;;;4164789;28;20567;-91
2022/06/17 00:46:27;;;;;;;5.07;2.85;;;20.60;99.90;;;;;;4164674;28;20179;-90
2022/06/17 00:48:35;;;;;;;4.45;2.33;;;20.60;99.90;;;;;;4164724;28;20198;-91
2022/06/17 00:50:45;;;;;;;6.88;3.03;;;20.40;99.90;;;;;;4164485;28;20187;-91
2022/06/17 00:53:04;;;;;;;6.38;2.42;;;20.40;99.90;;;;;;4164775;28;20175;-90
2022/06/17 00:55:20;;;;;;;7.85;2.35;;;20.40;99.90;;;;;;4164574;28;20180;-90
2022/06/17 00:57:36;;;;;;;7.80;2.70;;;20.40;99.90;;;;;;4164405;28;20176;-90
2022/06/17 00:59:37;;;;;;;4.53;2.20;;;20.40;99.90;;;;;;4164337;28;20614;-90
2022/06/17 01:01:42;;;;;;;6.45;2.53;;;20.40;99.90;;;;;;4180949;28;20175;-90
2022/06/17 01:03:43;;;;;;;6.72;2.65;;;20.30;99.90;;;;;;4164503;28;20216;-89
2022/06/17 01:05:50;;;;;;;7.10;2.70;;;20.20;99.90;;;;;;4181066;28;20182;-91
2022/06/17 01:10:47;;;;;;;8.00;2.70;;;20.10;99.90;;;;;;4181085;28;20225;-90
2022/06/17 01:13:02;;;;;;;6.53;3.17;;;20.10;99.90;;;;;;4181021;28;20271;-90
2022/06/17 01:15:08;;;;;;;6.03;2.60;;;20.00;99.90;;;;;;4164683;28;20234;-90
2022/06/17 01:17:13;;;;;;;7.18;2.58;;;20.00;99.90;;;;;;4164812;28;20184;-89
2022/06/17 01:19:30;;;;;;;4.38;2.42;;;19.90;99.90;;;;;;4164585;28;20192;-91
2022/06/17 01:21:50;;;;;;;6.22;2.45;;;20.00;99.90;;;;;;4165143;28;20506;-90
2022/06/17 01:23:52;;;;;;;13.30;2.50;;;19.90;99.90;;;;;;4164547;28;20168;-91
2022/06/17 01:25:53;;;;;;;8.73;2.20;;;19.90;99.90;;;;;;4180786;28;20187;-90
2022/06/17 01:28:06;;;;;;;4.05;2.72;;;20.00;99.90;;;;;;4164514;28;20220;-91
2022/06/17 01:30:11;;;;;;;4.10;2.47;;;20.00;99.90;;;;;;4164639;28;20213;-91
2022/06/17 01:32:14;;;;;;;7.78;2.85;;;20.00;99.90;;;;;;4180986;28;21112;-90
2022/06/17 01:34:17;;;;;;;7.35;2.55;;;20.00;99.90;;;;;;4180683;28;20171;-90
2022/06/17 01:36:23;;;;;;;6.70;2.55;;;20.00;99.90;;;;;;4180632;28;20190;-91
2022/06/17 01:38:27;;;;;;;3.25;2.40;;;19.90;99.90;;;;;;4164274;28;20639;-91
2022/06/17 01:40:29;;;;;;;6.35;2.60;;;19.90;99.90;;;;;;4180591;28;20195;-91
2022/06/17 01:42:31;;;;;;;9.93;2.28;;;19.90;99.90;;;;;;4180835;28;20251;-90
2022/06/17 01:44:35;;;;;;;4.72;2.50;;;19.80;99.90;;;;;;4164358;28;20181;-90
2022/06/17 01:46:39;;;;;;;8.32;2.85;;;19.90;99.90;;;;;;4164355;28;20704;-91
2022/06/17 01:48:46;;;;;;;5.32;2.97;;;19.90;99.90;;;;;;4164156;28;20196;-91
2022/06/17 01:50:48;;;;;;;4.80;2.30;;;19.90;99.90;;;;;;4180686;28;20183;-90
2022/06/17 01:52:56;;;;;;;6.80;2.38;;;19.90;99.90;;;;;;4164288;28;20197;-90
2022/06/17 01:54:58;;;;;;;4.05;2.50;;;20.00;99.90;;;;;;4164107;28;20541;-90
2022/06/17 01:57:01;;;;;;;8.05;2.10;;;20.00;99.90;;;;;;4180738;28;20172;-90
2022/06/17 01:59:16;;;;;;;3.83;2.20;;;20.00;99.90;;;;;;4163992;28;20192;-91
2022/06/17 02:01:18;;;;;;;8.10;2.45;;;20.00;99.90;;;;;;4158316;28;20176;-90
2022/06/17 02:03:24;;;;;;;5.13;2.28;;;20.00;99.90;;;;;;4166135;28;20168;-91
2022/06/17 02:05:30;;;;;;;6.85;2.30;;;20.00;99.90;;;;;;4183650;28;20174;-92
2022/06/17 02:07:54;;;;;;;5.30;2.67;;;19.90;99.90;;;;;;4183969;28;20262;-90
2022/06/17 02:09:54;;;;;;;6.05;3.03;;;19.90;99.90;;;;;;4171211;28;20219;-91
2022/06/17 02:11:58;;;;;;;7.85;2.75;;;19.80;99.90;;;;;;4183662;28;20174;-91
2022/06/17 02:14:06;;;;;;;5.80;2.25;;;19.70;99.90;;;;;;4183517;28;20179;-91
2022/06/17 02:16:30;;;;;;;6.35;2.17;;;19.70;99.90;;;;;;4178443;28;20262;-89
2022/06/17 02:18:55;;;;;;;6.13;2.35;;;19.70;99.90;;;;;;4169886;28;20187;-91
2022/06/17 02:21:05;;;;;;;3.33;2.00;;;19.70;99.90;;;;;;4167326;28;20200;-91
2022/06/17 02:23:06;;;;;;;5.05;2.13;;;19.60;99.90;;;;;;4183372;28;20197;-89
2022/06/17 02:25:11;;;;;;;5.68;2.60;;;19.60;99.90;;;;;;4184412;28;20167;-90
2022/06/17 02:27:14;;;;;;;7.30;2.70;;;19.60;99.90;;;;;;4183508;28;20209;-91
2022/06/17 02:29:15;;;;;;;6.40;2.40;;;19.60;99.90;;;;;;4183120;28;20288;-91
2022/06/17 02:31:17;;;;;;;6.20;2.20;;;19.50;99.90;;;;;;4183312;28;20168;-90
2022/06/17 02:33:18;;;;;;;6.10;2.25;;;19.60;99.90;;;;;;4166913;28;20172;-92
2022/06/17 02:35:37;;;;;;;8.52;2.78;;;19.70;99.90;;;;;;4166865;28;20628;-90
2022/06/17 02:37:39;;;;;;;4.90;2.58;;;19.60;99.90;;;;;;4166915;28;20175;-91
2022/06/17 02:39:47;;;;;;;5.78;2.55;;;19.60;99.90;;;;;;4166519;28;20196;-90
2022/06/17 02:41:50;;;;;;;4.35;2.42;;;19.60;99.90;;;;;;4166746;28;20267;-91
2022/06/17 02:44:11;;;;;;;6.80;2.55;;;19.70;99.90;;;;;;4166503;28;20222;-90
2022/06/17 02:46:33;;;;;;;8.30;2.53;;;19.70;99.90;;;;;;4166652;28;20176;-91
2022/06/17 02:48:45;;;;;;;4.47;2.47;;;19.70;99.90;;;;;;4166217;28;20242;-90
2022/06/17 02:50:46;;;;;;;6.47;2.40;;;19.80;99.90;;;;;;4182769;28;20187;-90
2022/06/17 02:52:48;;;;;;;9.65;2.15;;;19.80;99.90;;;;;;4166611;28;20181;-91
2022/06/17 02:54:56;;;;;;;7.43;2.20;;;19.70;99.90;;;;;;4182720;28;20187;-90
2022/06/17 02:56:59;;;;;;;7.13;2.30;;;19.70;99.90;;;;;;4166311;28;20532;-90
2022/06/17 02:59:23;;;;;;;6.60;2.08;;;19.80;99.90;;;;;;4166043;28;20224;-91
2022/06/17 03:01:27;;;;;;;9.70;2.55;;;19.90;99.90;;;;;;4166207;28;20199;-91
2022/06/17 03:03:43;;;;;;;3.53;1.95;;;19.90;99.90;;;;;;4182951;28;20597;-91
2022/06/17 03:05:46;;;;;;;8.30;2.53;;;19.90;99.90;;;;;;4182825;28;20174;-91
2022/06/17 03:07:48;;;;;;;4.55;2.13;;;19.90;99.90;;;;;;4166489;28;20175;-92
2022/06/17 03:09:57;;;;;;;6.35;2.33;;;19.90;99.90;;;;;;4183529;28;20218;-91
2022/06/17 03:12:06;;;;;;;5.05;2.10;;;19.90;99.90;;;;;;4182859;28;20179;-92
2022/06/17 03:14:09;;;;;;;5.35;2.05;;;19.80;99.90;;;;;;4182629;28;20183;-90
2022/06/17 03:16:12;;;;;;;4.65;2.10;;;19.90;99.90;;;;;;4182841;28;20179;-91
2022/06/17 03:18:14;;;;;;;5.25;2.17;;;19.90;99.90;;;;;;4182477;28;20296;-91
2022/06/17 03:20:31;;;;;;;3.95;2.10;;;19.90;99.90;;;;;;4182389;28;20176;-89
2022/06/17 03:22:32;;;;;;;4.15;2.20;;;20.00;99.90;;;;;;4182637;28;20263;-90
2022/06/17 03:25:02;;;;;;;6.75;2.10;;;20.00;99.90;;;;;;4165861;28;20222;-91
2022/06/17 03:27:09;;;;;;;5.78;2.25;;;20.10;99.90;;;;;;4142322;28;20261;-91
2022/06/17 03:29:12;;;;;;;9.02;2.20;;;20.10;99.90;;;;;;4165509;28;20208;-91
2022/06/17 03:31:30;;;;;;;7.80;2.30;;;20.00;99.90;;;;;;4182344;28;20183;-90
2022/06/17 03:33:34;;;;;;;6.63;2.15;;;19.90;99.90;;;;;;4182506;28;20660;-91
2022/06/17 03:35:39;;;;;;;7.68;2.33;;;19.90;99.90;;;;;;4182459;28;20566;-90
2022/06/17 03:37:53;;;;;;;6.60;2.38;;;19.90;99.90;;;;;;4182182;28;20229;-90
2022/06/17 03:39:59;;;;;;;7.35;2.53;;;19.90;99.90;;;;;;4165612;28;20199;-91
2022/06/17 03:42:19;;;;;;;2.72;2.00;;;20.00;99.90;;;;;;4182228;28;20168;-89
2022/06/17 03:44:29;;;;;;;5.50;2.30;;;20.00;99.90;;;;;;4165869;28;20230;-90
2022/06/17 03:46:43;;;;;;;6.18;2.15;;;20.00;99.90;;;;;;4182010;28;20175;-90
2022/06/17 03:49:01;;;;;;;9.65;2.17;;;20.10;99.90;;;;;;4165559;28;20196;-90
2022/06/17 03:51:03;;;;;;;11.00;2.10;;;20.10;99.90;;;;;;4165558;28;20277;-91
2022/06/17 03:53:23;;;;;;;5.60;2.10;;;20.10;99.90;;;;;;4165532;28;20175;-91
2022/06/17 03:55:24;;;;;;;8.35;2.05;;;20.10;99.90;;;;;;4165321;28;20245;-90
2022/06/17 03:57:29;;;;;;;5.82;2.33;;;20.10;99.90;;;;;;4165333;28;20172;-89
2022/06/17 03:59:33;;;;;;;3.40;1.98;;;20.10;99.90;;;;;;4182304;28;20268;-90
2022/06/17 04:01:45;;;;;;;4.68;2.33;;;20.10;99.90;;;;;;4182950;28;20198;-91
2022/06/17 04:03:56;;;;;;;4.53;2.17;;;20.20;99.90;;;;;;4165720;28;20179;-90
2022/06/17 04:06:05;;;;;;;7.57;2.10;;;20.10;99.90;;;;;;4165532;28;20191;-90
2022/06/17 04:08:10;;;;;;;7.63;1.95;;;20.10;99.90;;;;;;4165315;28;20176;-91
2022/06/17 04:10:17;;;;;;;3.72;2.00;;;20.10;99.90;;;;;;4164962;28;20200;-90
2022/06/17 04:12:25;;;;;;;6.32;2.03;;;20.10;99.90;;;;;;4165279;28;20172;-90
2022/06/17 04:15:18;;;;;;;4.28;1.80;;;20.20;99.90;;;;;;4168380;28;20282;-91
2022/06/17 04:17:43;;;;;;;4.97;2.08;;;20.20;99.90;;;;;;4159539;28;20215;-90
2022/06/17 04:19:51;;;;;;;5.32;2.00;;;20.20;99.90;;;;;;4165101;28;20192;-89
2022/06/17 04:21:55;;;;;;;5.68;1.70;;;20.30;99.90;;;;;;4181676;28;20212;-89
2022/06/17 04:23:58;;;;;;;6.28;2.00;;;20.30;99.90;;;;;;4181514;28;20163;-91
2022/06/17 04:26:27;;;;;;;3.10;1.70;;;20.40;99.90;;;;;;4181449;28;20301;-90
2022/06/17 04:28:45;;;;;;;12.07;2.40;;;20.40;99.90;;;;;;4164961;28;20256;-90
2022/06/17 04:31:12;;;;;;;4.85;1.80;;;20.40;99.90;;;;;;4181413;28;20218;-90
2022/06/17 04:33:34;;;;;;;6.93;2.40;;;20.30;99.90;;;;;;4181594;28;20591;-90
2022/06/17 04:35:35;;;;;;;5.90;2.25;;;20.20;99.90;;;;;;4164999;28;20176;-90
2022/06/17 04:37:38;;;;;;;8.25;2.50;;;20.30;99.90;;;;;;4164798;28;20194;-91
2022/06/17 04:39:58;;;;;;;6.57;2.55;;;20.30;99.90;;;;;;4165770;28;20719;-90
2022/06/17 04:42:11;;;;;;;5.78;2.08;;;20.40;99.90;;;;;;4181684;28;20284;-93
2022/06/17 04:44:13;;;;;;;4.93;2.25;;;20.40;99.90;;;;;;4164659;28;20177;-89
2022/06/17 04:46:30;;;;;;;4.80;2.38;;;20.40;99.90;;;;;;4164860;28;20632;-90
2022/06/17 04:48:32;;;;;;;6.28;2.40;;;20.40;99.90;;;;;;4164290;28;20226;-90
2022/06/17 04:50:33;;;;;;;6.22;2.20;;;20.30;99.90;;;;;;4181115;28;20264;-91
2022/06/17 04:52:37;;;;;;;4.10;1.77;;;20.40;99.90;;;;;;4164831;28;20644;-90
2022/06/17 04:55:00;;;;;;;10.45;1.80;;;20.50;99.90;;;;;;4150990;28;20179;-90
2022/06/17 04:57:21;;;;;;;4.18;1.92;;;20.50;99.90;;;;;;4151028;28;20199;-90
2022/06/17 04:59:44;;;;;;;16.58;2.55;;;20.60;99.90;;;;;;4166247;28;20199;-90
2022/06/17 05:01:47;;;;;;;3.10;1.88;;;20.70;99.90;;;;;;4164625;28;20209;-90
2022/06/17 05:04:09;;;;;;;4.03;1.70;;;20.90;99.90;;;;;;4174156;28;20175;-90
2022/06/17 05:06:14;;;;;;;5.47;1.98;;;20.90;99.90;;;;;;4181063;28;20186;-91
2022/06/17 05:08:23;;;;;;;4.55;2.00;;;21.00;99.90;;;;;;4181407;28;20191;-91
2022/06/17 05:10:27;;;;;;;6.00;2.10;;;21.10;99.90;;;;;;4180897;28;20572;-90
2022/06/17 05:12:33;;;;;;;7.47;2.28;;;21.00;99.90;;;;;;4164546;28;20180;-91
2022/06/17 05:14:58;;;;;;;7.75;2.30;;;20.90;99.90;;;;;;4180897;28;20202;-91
2022/06/17 05:17:00;;;;;;;11.90;2.40;;;20.90;99.90;;;;;;4181025;28;20175;-91
2022/06/17 05:19:03;;;;;;;10.93;2.70;;;20.90;99.90;;;;;;4164631;28;20275;-91
2022/06/17 05:21:07;;;;;;;9.48;3.10;;;20.90;99.90;;;;;;4164539;28;20175;-90
2022/06/17 05:23:11;;;;;;;9.20;3.00;;;20.80;99.90;;;;;;4164501;28;20168;-92
2022/06/17 05:25:17;;;;;;;12.82;3.78;;;20.50;99.90;;;;;;4164115;28;20659;-91
2022/06/17 05:27:17;;;;;;;7.68;3.03;;;20.50;99.90;;;;;;4180840;28;20221;-91
2022/06/17 05:29:18;;;;;;;9.43;3.60;;;20.60;99.90;;;;;;4180693;28;20203;-89
2022/06/17 05:31:28;;;;;;;8.77;3.13;;;20.70;99.90;;;;;;4165496;28;20861;-90
2022/06/17 05:33:37;;;;;;;6.22;2.80;;;20.70;99.90;;;;;;4165249;28;20583;-89
2022/06/17 05:35:38;;;;;;;9.23;3.35;;;20.80;99.90;;;;;;4164446;28;20187;-91
2022/06/17 05:37:39;;;;;;;9.20;4.15;;;20.80;99.90;;;;;;4165285;28;20636;-89
2022/06/17 05:39:43;;;;;;;11.35;3.47;;;20.90;99.90;;;;;;4167956;28;20716;-91
2022/06/17 05:41:43;;;;;;;8.30;3.42;;;21.00;99.90;;;;;;4167771;28;20215;-92
2022/06/17 05:43:44;;;;;;;10.45;3.60;;;21.00;99.90;;;;;;4167627;28;20173;-91
2022/06/17 05:45:52;;;;;;;10.00;3.72;;;21.20;99.90;;;;;;4168440;28;20194;-91
2022/06/17 05:48:02;;;;;;;13.68;4.10;;;21.20;99.90;;;;;;4168643;28;20379;-90
2022/06/17 05:50:27;;;;;;;7.72;3.47;;;21.20;99.90;;;;;;4156400;28;20211;-91
2022/06/17 05:53:05;;;;;;;7.97;3.25;;;21.20;99.90;;;;;;4154584;28;20188;-92
2022/06/17 05:55:15;;;;;;;10.50;3.90;;;21.30;99.90;;;;;;4168387;28;20678;-92
2022/06/17 05:57:16;;;;;;;9.98;4.20;;;21.30;99.90;;;;;;4167358;28;20176;-91
2022/06/17 05:59:17;;;;;;;13.70;4.22;;;21.30;99.90;;;;;;4167277;28;20738;-92
2022/06/17 06:01:18;;;;;;;12.88;5.10;;;21.30;99.90;;;;;;4183619;28;20172;-90
2022/06/17 06:03:22;;;;;;;13.43;4.25;;;21.40;99.90;;;;;;4167222;28;20180;-91
2022/06/17 06:05:26;;;;;;;12.05;3.95;;;21.40;99.90;;;;;;4167503;28;20637;-91
2022/06/17 06:07:30;;;;;;;11.23;4.13;;;21.50;99.90;;;;;;4167470;28;20175;-92
2022/06/17 06:09:32;;;;;;;8.75;4.10;;;21.50;99.90;;;;;;4167065;28;20286;-91
2022/06/17 06:11:33;;;;;;;11.00;4.25;;;21.60;99.90;;;;;;4167432;28;20180;-90
2022/06/17 06:13:34;;;;;;;15.00;4.68;;;21.70;99.90;;;;;;4183444;28;20171;-92
2022/06/17 06:15:41;;;;;;;9.30;4.07;;;21.70;99.90;;;;;;4183255;28;20171;-89
2022/06/17 06:18:16;;;;;;;12.30;3.90;;;21.80;99.90;;;;;;4181584;28;20175;-92
2022/06/17 06:20:18;;;;;;;12.00;4.18;;;21.90;99.90;;;;;;4166946;28;20190;-89
2022/06/17 06:22:19;;;;;;;14.02;4.97;;;22.00;99.90;;;;;;4183630;28;20168;-93
2022/06/17 06:24:19;;;;;;;10.50;4.13;;;22.00;99.90;;;;;;4166896;28;20235;-88
2022/06/17 06:26:21;;;;;;;16.20;4.80;;;21.90;99.90;;;;;;4167009;28;20263;-91
2022/06/17 06:28:38;;;;;;;13.35;4.43;;;22.10;99.90;;;;;;4183450;28;20191;-91
2022/06/17 06:31:13;;;;;;;12.55;4.38;;;22.20;99.90;;;;;;4183625;28;20634;-89
2022/06/17 06:33:14;;;;;;;12.32;4.10;;;22.40;99.90;;;;;;4166665;28;20699;-91
2022/06/17 06:35:16;;;;;;;13.15;4.50;;;22.40;99.90;;;;;;4182776;28;20164;-91
2022/06/17 06:37:17;;;;;;;16.52;4.75;;;22.50;99.90;;;;;;4166104;28;20172;-91
2022/06/17 06:39:18;;;;;;;14.18;4.72;;;22.60;99.90;;;;;;4182492;28;20286;-91
2022/06/17 06:41:21;;;;;;;9.82;3.95;;;22.80;99.90;;;;;;4166628;28;20172;-91
2022/06/17 06:43:22;;;;;;;12.23;3.53;;;23.00;99.90;;;;;;4166805;28;20191;-91
2022/06/17 06:45:43;;;;;;;13.35;4.28;;;23.10;99.90;;;;;;4181809;28;20208;-91
2022/06/17 06:47:47;;;;;;;12.82;4.15;;;23.20;99.90;;;;;;4165025;28;20171;-89
2022/06/17 06:49:54;;;;;;;13.45;4.30;;;23.20;99.90;;;;;;4164057;28;20267;-90
2022/06/17 06:51:59;;;;;;;12.15;4.30;;;23.30;99.90;;;;;;4181599;28;20173;-93
2022/06/17 06:53:59;;;;;;;6.45;3.53;;;23.40;99.90;;;;;;4165168;28;20712;-91
2022/06/17 06:56:05;;;;;;;7.60;3.22;;;23.70;99.90;;;;;;4165112;28;20247;-92
2022/06/17 06:58:14;;;;;;;13.68;4.30;;;23.80;99.90;;;;;;4165275;28;20207;-90
2022/06/17 07:00:25;;;;;;;9.60;3.80;;;23.70;99.90;;;;;;4157082;28;20196;-91
2022/06/17 07:02:26;;;;;;;9.48;3.70;;;23.80;99.90;;;;;;4165284;28;20183;-92
2022/06/17 07:04:27;;;;;;;17.10;4.07;;;23.80;99.90;;;;;;4154370;28;20737;-92
2022/06/17 07:06:28;;;;;;;12.13;4.13;;;23.60;99.90;;;;;;4165448;28;20262;-92
2022/06/17 07:08:34;;;;;;;13.32;4.40;;;23.60;99.90;;;;;;4165137;28;20192;-92
2022/06/17 07:10:35;;;;;;;10.57;4.30;;;23.70;99.90;;;;;;4165214;28;20212;-93
2022/06/17 07:12:36;;;;;;;11.60;4.35;;;23.50;99.90;;;;;;4165026;28;20177;-92
2022/06/17 07:14:37;;;;;;;12.57;4.03;;;23.70;99.90;;;;;;4181905;28;20180;-89
2022/06/17 07:16:38;;;;;;;12.40;4.22;;;24.40;99.90;;;;;;4165490;28;20172;-90
2022/06/17 07:18:38;;;;;;;11.43;4.43;;;26.20;99.90;;;;;;4181621;28;20352;-91
2022/06/17 07:20:43;;;;;;;7.03;3.40;;;27.60;99.90;;;;;;4165537;28;20168;-93
2022/06/17 07:22:44;;;;;;;8.70;3.35;;;28.80;99.90;;;;;;4181938;28;20238;-88
2022/06/17 07:24:44;;;;;;;8.50;3.20;;;29.50;99.90;;;;;;4164749;28;20263;-90
2022/06/17 07:26:45;;;;;;;9.18;3.47;;;29.80;99.90;;;;;;4165012;28;20164;-89
2022/06/17 07:28:47;;;;;;;12.18;2.80;;;30.00;99.90;;;;;;4165020;28;20247;-90
2022/06/17 07:30:50;;;;;;;9.82;2.88;;;30.50;99.90;;;;;;4181501;28;20211;-89
2022/06/17 07:32:51;;;;;;;11.85;2.97;;;31.30;99.90;;;;;;4165018;28;20179;-90
2022/06/17 07:34:52;;;;;;;7.75;3.17;;;32.20;99.90;;;;;;4164300;28;20246;-90
2022/06/17 07:41:34;;;;;;;8.65;2.08;;;31.50;99.90;;;;;;4181640;28;20175;-90
2022/06/17 07:43:35;;;;;;;4.28;1.95;;;31.80;99.90;;;;;;4165478;28;20187;-90
2022/06/17 07:45:37;;;;;;;6.50;1.95;;;31.50;99.90;;;;;;4164727;28;20702;-89
2022/06/17 07:47:42;;;;;;;8.20;2.17;;;31.70;99.90;;;;;;4165342;28;20635;-89
2022/06/17 07:49:42;;;;;;;9.75;2.15;;;32.10;99.90;;;;;;4181582;28;20345;-90
2022/06/17 07:51:43;;;;;;;4.68;1.65;;;33.00;99.90;;;;;;4164728;28;20187;-91
2022/06/17 07:53:44;;;;;;;6.38;2.03;;;34.00;99.90;;;;;;4164408;28;20215;-90
2022/06/17 07:55:45;;;;;;;4.53;1.90;;;34.60;99.90;;;;;;4164627;28;20191;-90
2022/06/17 07:57:46;;;;;;;8.88;1.90;;;34.90;99.90;;;;;;4164619;28;20275;-91
2022/06/17 07:59:47;;;;;;;4.65;2.00;;;35.40;99.90;;;;;;4161159;28;20187;-91
2022/06/17 08:01:47;;;;;;;4.80;2.20;;;34.90;99.90;;;;;;4164137;28;20706;-91
2022/06/17 08:03:48;;;;;;;5.20;1.73;;;33.70;99.90;;;;;;4148669;28;20175;-93
2022/06/17 08:05:52;;;;;;;7.63;1.70;;;33.20;99.90;;;;;;4148706;28;20203;-90
2022/06/17 08:07:55;;;;;;;17.23;1.98;;;34.10;99.90;;;;;;4157796;28;20283;-91
2022/06/17 08:09:55;;;;;;;5.10;1.83;;;34.40;99.90;;;;;;4181607;28;20254;-92
2022/06/17 08:11:56;;;;;;;5.53;1.92;;;34.60;99.90;;;;;;4179235;28;20194;-91
2022/06/17 08:13:57;;;;;;;4.85;2.00;;;35.10;99.90;;;;;;4165333;28;20297;-90
2022/06/17 08:16:00;;;;;;;7.88;2.00;;;34.60;99.90;;;;;;4180659;28;20166;-93
2022/06/17 08:18:01;;;;;;;10.02;2.20;;;34.60;99.90;;;;;;4164279;28;20168;-90
2022/06/17 08:20:02;;;;;;;8.55;1.80;;;34.00;99.90;;;;;;4181251;28;20233;-91
2022/06/17 08:22:03;;;;;;;4.18;1.73;;;34.30;99.90;;;;;;4164892;28;20288;-91
2022/06/17 08:24:04;;;;;;;3.25;1.77;;;35.10;99.90;;;;;;4180678;28;20734;-91
2022/06/17 08:26:05;;;;;;;15.18;2.08;;;35.00;99.90;;;;;;4180963;28;20175;-90
2022/06/17 08:28:08;;;;;;;9.57;1.70;;;34.70;99.90;;;;;;4164361;28;20178;-91
2022/06/17 08:30:10;;;;;;;8.38;1.88;;;34.30;99.90;;;;;;4164502;28;20238;-91
2022/06/17 08:34:31;;;;;;;6.28;1.60;;;34.10;99.90;;;;;;4181003;28;20670;-92
2022/06/17 08:36:32;;;;;;;5.78;1.70;;;34.50;99.90;;;;;;4164740;28;20172;-91
2022/06/17 08:38:35;;;;;;;7.00;1.90;;;34.90;99.90;;;;;;4180700;28;20701;-91
2022/06/17 08:40:50;;;;;;;6.10;1.50;;;35.10;99.90;;;;;;4164479;28;20556;-90
2022/06/17 08:43:01;;;;;;;12.80;1.92;;;34.80;99.90;;;;;;4181691;28;20167;-92
2022/06/17 08:45:13;;;;;;;5.28;1.80;;;35.20;99.90;;;;;;4180566;28;20529;-91
2022/06/17 08:47:26;;;;;;;3.72;1.60;;;34.50;99.90;;;;;;4164384;28;20208;-92
2022/06/17 08:49:35;;;;;;;9.00;1.50;;;34.60;99.90;;;;;;4164132;28;20234;-92
2022/06/17 08:51:45;;;;;;;3.55;1.60;;;35.10;99.90;;;;;;4164292;28;20198;-92
2022/06/17 08:54:12;;;;;;;3.55;1.70;;;35.10;99.90;;;;;;4164009;28;20175;-91
2022/06/17 08:56:35;;;;;;;6.82;1.80;;;35.40;99.90;;;;;;4164412;28;20194;-92
2022/06/17 08:59:15;;;;;;;6.78;1.85;;;34.60;99.90;;;;;;4164386;28;20187;-93
2022/06/17 09:01:24;;;;;;;3.92;1.50;;;34.60;99.90;;;;;;4163695;28;20187;-94
2022/06/17 09:03:48;;;;;;;4.07;1.77;;;34.80;99.90;;;;;;4164047;28;20664;-93
2022/06/17 09:06:23;;;;;;;4.80;1.67;;;36.00;99.90;;;;;;4163914;28;20230;-93
2022/06/17 09:08:29;;;;;;;5.53;1.92;;;36.60;99.90;;;;;;4163768;28;20206;-92
2022/06/17 09:10:40;;;;;;;5.00;1.88;;;37.10;99.90;;;;;;4180520;28;20171;-95
2022/06/17 09:12:58;;;;;;;5.57;1.70;;;37.60;99.90;;;;;;4168993;28;20171;-93
2022/06/17 09:15:23;;;;;;;6.38;1.90;;;37.50;99.90;;;;;;4186128;28;20230;-93
2022/06/17 09:18:01;;;;;;;4.25;1.60;;;36.90;99.90;;;;;;4169299;28;20184;-94
2022/06/17 09:20:05;;;;;;;4.75;1.50;;;37.10;99.90;;;;;;4169086;28;20236;-93
2022/06/17 09:22:26;;;;;;;2.97;1.35;;;37.80;99.90;;;;;;4169569;28;20167;-93
2022/06/17 09:24:36;;;;;;;4.53;1.80;;;38.10;99.90;;;;;;4168830;28;20172;-90
2022/06/17 09:26:49;;;;;;;2.80;1.70;;;37.60;99.90;;;;;;4185920;28;20218;-94
2022/06/17 09:29:09;;;;;;;4.00;1.90;;;37.70;99.90;;;;;;4169578;28;20184;-93
2022/06/17 09:31:25;;;;;;;4.50;1.67;;;37.80;99.90;;;;;;4186256;28;20260;-93
2022/06/17 09:33:56;;;;;;;3.60;1.80;;;37.20;99.90;;;;;;4169636;28;20179;-94
2022/06/17 09:36:05;;;;;;;6.38;1.55;;;38.10;99.90;;;;;;4169214;28;20192;-93
2022/06/17 09:38:17;;;;;;;5.90;1.90;;;37.70;99.90;;;;;;4169751;28;20182;-95
2022/06/17 09:40:35;;;;;;;3.88;1.67;;;37.20;99.90;;;;;;4169667;28;20272;-95
2022/06/17 09:42:42;;;;;;;3.50;2.03;;;37.00;99.90;;;;;;4169818;28;20579;-94
2022/06/17 09:44:54;;;;;;;7.20;1.77;;;37.30;99.90;;;;;;4202294;28;20173;-92
2022/06/17 09:47:13;;;;;;;4.65;1.77;;;37.50;99.90;;;;;;4186008;28;20598;-93
2022/06/17 09:49:50;;;;;;;6.28;1.80;;;37.30;99.90;;;;;;4169318;28;20195;-93
2022/06/17 09:52:16;;;;;;;3.95;1.60;;;37.70;99.90;;;;;;4125939;28;20621;-95
2022/06/17 09:54:48;;;;;;;8.60;1.63;;;36.90;99.90;;;;;;4183470;28;20158;-94
2022/06/17 09:57:34;;;;;;;7.38;1.90;;;37.00;99.90;;;;;;4182547;28;20206;-93
2022/06/17 10:00:25;;;;;;;8.23;1.70;;;37.30;99.90;;;;;;4197187;28;20233;-96
2022/06/17 10:02:34;;;;;;;5.80;1.52;;;37.80;99.90;;;;;;4205165;22;20714;-91
2022/06/17 10:04:35;;;;;;;5.88;1.70;;;38.00;99.90;;;;;;4186049;28;20181;-93
2022/06/17 10:06:50;;;;;;;2.13;1.52;;;38.00;99.90;;;;;;4186125;28;20598;-94
2022/06/17 10:09:25;;;;;;;4.45;1.70;;;38.10;99.90;;;;;;4177519;28;20187;-93
2022/06/17 10:11:47;;;;;;;4.78;1.58;;;37.50;99.90;;;;;;4104066;29;20209;-91
2022/06/17 10:13:57;;;;;;;5.47;1.60;;;36.90;99.90;;;;;;4139248;28;20572;-94
2022/06/17 10:18:53;;;;;;;4.53;1.63;;;36.50;99.90;;;;;;4185717;28;20206;-93
2022/06/17 10:21:22;;;;;;;5.15;1.48;;;35.90;99.90;;;;;;4152522;28;20283;-95
2022/06/17 10:23:29;;;;;;;8.05;1.92;;;36.10;99.90;;;;;;4150656;28;20657;-94
2022/06/17 10:25:52;;;;;;;4.50;1.70;;;35.60;99.90;;;;;;4182843;28;20179;-94
2022/06/17 10:28:22;;;;;;;6.53;1.63;;;35.10;99.90;;;;;;4183156;28;20182;-92
2022/06/17 10:30:47;;;;;;;5.80;1.77;;;34.30;99.90;;;;;;4166280;28;20183;-93
2022/06/17 10:32:51;;;;;;;7.60;1.98;;;33.80;99.90;;;;;;4182951;28;20186;-93
2022/06/17 10:34:59;;;;;;;5.85;1.77;;;33.10;99.90;;;;;;4166527;28;20186;-92
2022/06/17 10:37:03;;;;;;;2.33;1.60;;;33.10;99.90;;;;;;4166418;28;20175;-94
2022/06/17 10:39:06;;;;;;;5.47;1.65;;;32.50;99.90;;;;;;4166355;28;20183;-92
2022/06/17 10:41:10;;;;;;;7.38;1.73;;;32.30;99.90;;;;;;4166636;28;20178;-92
2022/06/17 10:43:18;;;;;;;3.42;1.30;;;32.00;99.90;;;;;;4166505;28;20179;-93
2022/06/17 10:45:19;;;;;;;2.42;1.40;;;32.30;99.90;;;;;;4166806;28;20179;-92
2022/06/17 10:47:36;;;;;;;6.72;1.70;;;32.30;99.90;;;;;;4150123;28;20288;-92
2022/06/17 10:49:44;;;;;;;9.55;1.58;;;32.60;99.90;;;;;;4166318;28;20199;-92
2022/06/17 10:51:48;;;;;;;5.25;1.80;;;32.50;99.90;;;;;;4166217;28;20183;-92
2022/06/17 10:54:00;;;;;;;7.10;1.90;;;32.30;99.90;;;;;;4182561;28;20185;-93
2022/06/17 10:56:05;;;;;;;6.72;1.52;;;32.30;99.90;;;;;;4166074;28;20164;-93
2022/06/17 10:58:17;;;;;;;5.13;1.60;;;32.50;99.90;;;;;;4165894;28;20186;-91
2022/06/17 11:00:24;;;;;;;5.35;1.23;;;32.80;99.90;;;;;;4166331;28;20216;-94
2022/06/17 11:02:29;;;;;;;5.32;1.67;;;32.60;99.90;;;;;;4182616;28;20190;-94
2022/06/17 11:04:35;;;;;;;4.68;1.58;;;32.20;99.90;;;;;;4182289;28;20183;-93
2022/06/17 11:06:51;;;;;;;2.15;1.27;;;32.00;99.90;;;;;;4165898;28;20222;-93
2022/06/17 11:08:56;;;;;;;3.65;1.50;;;32.00;99.90;;;;;;4149547;28;20200;-93
2022/06/17 11:13:55;;;;;;;4.32;1.20;;;31.90;99.90;;;;;;4165626;28;20255;-93
2022/06/17 11:15:58;;;;;;;4.93;1.67;;;31.90;99.90;;;;;;4165606;28;20743;-92
2022/06/17 11:18:04;;;;;;;5.75;1.52;;;31.80;99.90;;;;;;4165606;28;20619;-94
2022/06/17 11:20:28;;;;;;;3.70;1.50;;;31.80;99.90;;;;;;4182272;28;20762;-93
2022/06/17 11:22:35;;;;;;;5.13;1.42;;;31.60;99.90;;;;;;4165090;28;20335;-93
2022/06/17 11:24:41;;;;;;;7.72;2.42;;;31.70;99.90;;;;;;4165646;28;20177;-93